createdAt,value
2022-11-14T00:01:34.369Z,26.45
2022-11-14T00:02:56.022Z,27.33
2022-11-14T00:04:16.605Z,26.42
2022-11-14T00:05:42.669Z,27.72
2022-11-14T00:07:03.310Z,25.03
2022-11-14T00:08:25.383Z,26.48
2022-11-14T00:09:45.678Z,26.02
2022-11-14T00:11:06.075Z,28.48
2022-11-14T00:12:26.448Z,24.72
2022-11-14T00:13:46.951Z,24.98
2022-11-14T00:15:08.274Z,27.75
2022-11-14T00:16:28.655Z,27.18
2022-11-14T00:17:48.765Z,26.89
2022-11-14T00:19:09.151Z,27.63
2022-11-14T00:20:29.362Z,28.06
2022-11-14T00:21:49.364Z,27.09
2022-11-14T00:23:09.763Z,24.80
2022-11-14T00:24:30.235Z,25.74
2022-11-14T00:25:50.388Z,27.61
2022-11-14T00:27:10.725Z,29.40
2022-11-14T00:28:31.314Z,27.00
2022-11-14T00:29:52.391Z,25.96
2022-11-14T00:31:12.919Z,27.20
2022-11-14T00:32:33.512Z,27.10
2022-11-14T00:33:54.048Z,28.45
2022-11-14T00:35:14.381Z,28.55
2022-11-14T00:36:34.842Z,26.88
2022-11-14T00:37:55.311Z,27.32
2022-11-14T00:39:15.707Z,26.84
2022-11-14T00:40:35.825Z,27.63
2022-11-14T00:41:56.153Z,28.77
2022-11-14T00:43:16.534Z,25.69
2022-11-14T00:44:37.404Z,25.74
2022-11-14T00:45:58.014Z,28.14
2022-11-14T00:47:18.044Z,27.49
2022-11-14T00:48:38.099Z,27.19
2022-11-14T00:49:58.286Z,28.85
2022-11-14T00:51:18.463Z,28.96
2022-11-14T00:52:38.830Z,30.13
2022-11-14T00:53:59.014Z,30.37
2022-11-14T00:55:19.209Z,29.73
2022-11-14T00:56:39.660Z,27.54
2022-11-14T00:57:59.772Z,28.22
2022-11-14T00:59:20.154Z,28.87
2022-11-14T01:00:40.743Z,28.57
2022-11-14T01:02:01.567Z,29.28
2022-11-14T01:03:21.837Z,28.45
2022-11-14T01:04:42.261Z,28.76
2022-11-14T01:06:08.313Z,26.61
2022-11-14T01:07:28.428Z,28.99
2022-11-14T01:08:51.076Z,29.73
2022-11-14T01:10:11.690Z,28.66
2022-11-14T01:11:31.840Z,28.48
2022-11-14T01:12:51.824Z,29.37
2022-11-14T01:14:12.500Z,29.73
2022-11-14T01:15:33.140Z,29.82
2022-11-14T01:16:53.873Z,28.77
2022-11-14T01:18:18.711Z,30.60
2022-11-14T01:19:39.252Z,29.08
2022-11-14T01:20:59.921Z,30.60
2022-11-14T01:22:20.787Z,30.65
2022-11-14T01:23:41.545Z,30.50
2022-11-14T01:25:01.597Z,30.24
2022-11-14T01:26:21.863Z,29.62
2022-11-14T01:27:42.417Z,29.98
2022-11-14T01:29:02.717Z,30.31
2022-11-14T01:30:23.418Z,30.55
2022-11-14T01:31:43.721Z,27.87
2022-11-14T01:33:05.446Z,31.55
2022-11-14T01:34:26.616Z,28.85
2022-11-14T01:35:47.097Z,29.33
2022-11-14T01:37:07.488Z,29.01
2022-11-14T01:38:28.198Z,27.98
2022-11-14T01:39:48.917Z,30.85
2022-11-14T01:41:13.926Z,32.90
2022-11-14T01:42:34.128Z,30.79
2022-11-14T01:43:54.660Z,29.93
2022-11-14T01:45:53.705Z,29.57
2022-11-14T01:47:19.272Z,29.79
2022-11-14T01:49:15.968Z,31.54
2022-11-14T01:50:36.500Z,32.30
2022-11-14T01:52:08.246Z,31.21
2022-11-14T01:53:29.044Z,28.25
2022-11-14T01:54:54.491Z,27.99
2022-11-14T01:56:20.172Z,28.40
2022-11-14T01:57:47.034Z,30.00
2022-11-14T01:59:11.460Z,29.65
2022-11-14T02:00:31.774Z,29.64
2022-11-14T02:01:56.334Z,28.83
2022-11-14T02:03:17.575Z,30.17
2022-11-14T02:04:43.088Z,29.29
2022-11-14T02:06:06.391Z,28.92
2022-11-14T02:07:32.403Z,30.05
2022-11-14T02:08:54.841Z,29.89
2022-11-14T02:10:20.016Z,30.35
2022-11-14T02:11:45.086Z,28.23
2022-11-14T02:13:06.105Z,31.01
2022-11-14T02:14:28.714Z,28.73
2022-11-14T02:15:48.914Z,29.88
2022-11-14T02:18:50.069Z,28.43
2022-11-14T02:20:10.722Z,29.69
2022-11-14T02:21:31.380Z,30.41
2022-11-14T02:22:51.748Z,28.78
2022-11-14T02:24:13.528Z,31.00
2022-11-14T02:25:33.967Z,29.22
2022-11-14T02:26:54.168Z,30.43
2022-11-14T02:28:14.482Z,32.24
2022-11-14T02:29:35.369Z,27.15
2022-11-14T02:30:56.516Z,28.42
2022-11-14T02:32:16.973Z,27.65
2022-11-14T02:33:37.581Z,27.99
2022-11-14T02:34:57.903Z,32.05
2022-11-14T02:36:18.285Z,32.16
2022-11-14T02:37:39.825Z,28.87
2022-11-14T02:39:00.356Z,31.12
2022-11-14T02:40:23.993Z,30.63
2022-11-14T02:41:44.674Z,31.56
2022-11-14T02:43:05.355Z,32.76
2022-11-14T02:44:25.462Z,31.87
2022-11-14T02:45:46.978Z,30.84
2022-11-14T02:47:07.325Z,30.19
2022-11-14T02:48:28.331Z,29.42
2022-11-14T02:49:48.892Z,30.96
2022-11-14T02:51:09.372Z,28.32
2022-11-14T02:52:29.792Z,30.37
2022-11-14T02:53:50.307Z,30.83
2022-11-14T02:55:11.144Z,30.78
2022-11-14T02:56:31.499Z,29.93
2022-11-14T02:57:51.904Z,29.83
2022-11-14T02:59:12.365Z,28.32
2022-11-14T03:00:32.459Z,28.20
2022-11-14T03:01:53.245Z,27.64
2022-11-14T03:03:13.798Z,31.24
2022-11-14T03:04:34.322Z,29.57
2022-11-14T03:05:59.917Z,28.35
2022-11-14T03:07:20.249Z,26.16
2022-11-14T03:08:40.633Z,26.77
2022-11-14T03:10:01.040Z,29.77
2022-11-14T03:11:21.188Z,29.27
2022-11-14T03:12:41.634Z,29.33
2022-11-14T03:14:02.134Z,29.09
2022-11-14T03:15:23.676Z,30.65
2022-11-14T03:16:43.720Z,29.29
2022-11-14T03:18:04.095Z,26.48
2022-11-14T03:19:24.438Z,29.46
2022-11-14T03:20:45.080Z,29.21
2022-11-14T03:22:05.532Z,28.96
2022-11-14T03:23:25.918Z,28.19
2022-11-14T03:24:46.178Z,31.05
2022-11-14T03:26:09.288Z,29.32
2022-11-14T03:27:29.662Z,28.86
2022-11-14T03:28:49.844Z,30.25
2022-11-14T03:30:10.895Z,28.84
2022-11-14T03:31:31.177Z,26.30
2022-11-14T03:32:51.349Z,28.19
2022-11-14T03:34:13.646Z,29.43
2022-11-14T03:35:33.767Z,30.85
2022-11-14T03:36:54.039Z,27.57
2022-11-14T03:38:14.446Z,27.71
2022-11-14T03:39:35.019Z,28.04
2022-11-14T03:40:58.358Z,27.32
2022-11-14T03:42:18.543Z,28.59
2022-11-14T03:43:39.036Z,28.75
2022-11-14T03:44:59.168Z,26.51
2022-11-14T03:46:19.413Z,27.63
2022-11-14T03:47:40.007Z,27.35
2022-11-14T03:49:00.393Z,27.04
2022-11-14T03:50:20.478Z,28.86
2022-11-14T03:51:40.782Z,29.11
2022-11-14T03:53:01.683Z,28.26
2022-11-14T03:54:22.208Z,26.61
2022-11-14T03:55:44.137Z,26.22
2022-11-14T03:57:04.811Z,25.85
2022-11-14T03:58:24.972Z,28.07
2022-11-14T03:59:44.997Z,26.67
2022-11-14T04:01:05.372Z,27.43
2022-11-14T04:02:26.028Z,27.86
2022-11-14T04:03:46.429Z,26.47
2022-11-14T04:05:07.245Z,25.63
2022-11-14T04:06:27.367Z,28.05
2022-11-14T04:07:47.678Z,27.29
2022-11-14T04:09:08.284Z,28.31
2022-11-14T04:10:28.775Z,26.62
2022-11-14T04:11:49.324Z,26.33
2022-11-14T04:13:09.663Z,27.04
2022-11-14T04:14:30.086Z,28.68
2022-11-14T04:15:58.066Z,26.59
2022-11-14T04:17:18.955Z,28.68
2022-11-14T04:18:39.577Z,27.33
2022-11-14T04:20:00.481Z,25.63
2022-11-14T04:21:21.168Z,26.01
2022-11-14T04:22:41.374Z,27.81
2022-11-14T04:24:01.540Z,26.18
2022-11-14T04:25:21.847Z,27.38
2022-11-14T04:26:42.356Z,25.10
2022-11-14T04:28:02.539Z,25.64
2022-11-14T04:29:23.055Z,25.57
2022-11-14T04:30:45.136Z,26.45
2022-11-14T04:32:05.438Z,26.64
2022-11-14T04:33:25.514Z,25.61
2022-11-14T04:34:45.889Z,24.64
2022-11-14T04:36:06.633Z,24.41
2022-11-14T04:37:26.798Z,26.96
2022-11-14T04:38:47.577Z,25.50
2022-11-14T04:40:08.635Z,26.60
2022-11-14T04:41:28.827Z,26.22
2022-11-14T04:42:49.416Z,25.59
2022-11-14T04:44:09.933Z,24.89
2022-11-14T04:45:30.534Z,26.37
2022-11-14T04:46:50.853Z,24.74
2022-11-14T04:48:11.194Z,23.46
2022-11-14T04:49:31.691Z,24.55
2022-11-14T04:50:51.898Z,24.83
2022-11-14T04:52:12.341Z,25.30
2022-11-14T04:53:32.432Z,26.31
2022-11-14T04:54:52.820Z,26.14
2022-11-14T04:56:13.045Z,24.99
2022-11-14T04:57:33.306Z,26.30
2022-11-14T04:58:53.728Z,26.63
2022-11-14T05:00:14.879Z,26.64
2022-11-14T05:01:35.575Z,25.99
2022-11-14T05:02:59.182Z,24.83
2022-11-14T05:04:19.744Z,25.63
2022-11-14T05:05:42.139Z,24.27
2022-11-14T05:07:02.853Z,25.06
2022-11-14T05:08:23.351Z,25.13
2022-11-14T05:09:43.548Z,25.07
2022-11-14T05:11:04.352Z,24.21
2022-11-14T05:12:24.579Z,24.25
2022-11-14T05:13:45.137Z,25.58
2022-11-14T05:15:05.871Z,27.15
2022-11-14T05:16:26.597Z,31.10
2022-11-14T05:17:46.869Z,36.42
2022-11-14T05:19:07.529Z,39.24
2022-11-14T05:20:27.677Z,35.88
2022-11-14T05:21:48.015Z,34.74
2022-11-14T05:23:23.900Z,35.33
2022-11-14T05:24:44.381Z,33.84
2022-11-14T05:26:10.226Z,35.30
2022-11-14T05:27:30.642Z,29.21
2022-11-14T05:28:51.562Z,26.63
2022-11-14T05:30:12.622Z,26.74
2022-11-14T05:31:33.251Z,26.65
2022-11-14T05:32:53.775Z,23.98
2022-11-14T05:34:14.315Z,23.16
2022-11-14T05:35:34.491Z,22.32
2022-11-14T05:36:55.019Z,21.59
2022-11-14T05:38:15.272Z,22.10
2022-11-14T05:39:35.821Z,21.35
2022-11-14T05:40:56.420Z,21.05
2022-11-14T05:42:16.916Z,20.57
2022-11-14T05:43:38.170Z,22.73
2022-11-14T05:44:58.410Z,20.20
2022-11-14T05:46:18.923Z,20.50
2022-11-14T05:47:39.281Z,21.66
2022-11-14T05:48:59.775Z,22.45
2022-11-14T05:50:19.942Z,22.00
2022-11-14T05:51:40.321Z,22.01
2022-11-14T05:53:00.382Z,24.89
2022-11-14T05:54:20.982Z,27.47
2022-11-14T05:55:41.044Z,28.04
2022-11-14T05:57:01.178Z,22.76
2022-11-14T05:58:22.265Z,21.26
2022-11-14T05:59:42.634Z,21.82
2022-11-14T06:01:09.115Z,20.15
2022-11-14T06:02:29.609Z,22.71
2022-11-14T06:03:49.976Z,21.96
2022-11-14T06:05:10.573Z,22.49
2022-11-14T06:06:30.832Z,24.77
2022-11-14T06:08:00.104Z,32.21
2022-11-14T06:09:20.888Z,23.95
2022-11-14T06:10:41.280Z,22.43
2022-11-14T06:12:06.085Z,23.17
2022-11-14T06:13:26.749Z,22.14
2022-11-14T06:14:46.836Z,22.49
2022-11-14T06:16:11.301Z,23.63
2022-11-14T06:17:31.594Z,23.51
2022-11-14T06:18:54.936Z,21.50
2022-11-14T06:20:15.927Z,20.43
2022-11-14T06:21:36.407Z,20.61
2022-11-14T06:22:56.757Z,20.99
2022-11-14T06:24:17.205Z,20.60
2022-11-14T06:25:37.383Z,21.77
2022-11-14T06:26:57.708Z,20.49
2022-11-14T06:28:18.157Z,21.62
2022-11-14T06:29:38.396Z,21.46
2022-11-14T06:31:01.193Z,21.01
2022-11-14T06:32:21.625Z,22.51
2022-11-14T06:33:41.883Z,22.33
2022-11-14T06:35:02.216Z,23.28
2022-11-14T06:36:22.915Z,22.30
2022-11-14T06:37:43.058Z,24.04
2022-11-14T06:39:03.313Z,23.99
2022-11-14T06:40:23.756Z,21.94
2022-11-14T06:41:44.024Z,22.36
2022-11-14T06:43:04.259Z,24.71
2022-11-14T06:44:29.707Z,23.59
2022-11-14T06:45:54.877Z,23.64
2022-11-14T06:47:15.108Z,25.21
2022-11-14T06:48:36.173Z,25.43
2022-11-14T06:49:56.460Z,25.56
2022-11-14T06:51:18.147Z,25.75
2022-11-14T06:52:38.521Z,25.75
2022-11-14T06:53:58.995Z,24.31
2022-11-14T06:55:24.854Z,24.12
2022-11-14T06:56:45.911Z,22.23
2022-11-14T06:58:06.071Z,23.84
2022-11-14T06:59:26.340Z,24.46
2022-11-14T07:00:46.538Z,25.24
2022-11-14T07:02:07.081Z,25.32
2022-11-14T07:03:27.512Z,24.07
2022-11-14T07:04:48.036Z,26.06
2022-11-14T07:06:10.354Z,25.63
2022-11-14T07:07:30.945Z,24.69
2022-11-14T07:08:53.416Z,25.81
2022-11-14T07:10:13.851Z,24.08
2022-11-14T07:11:35.458Z,24.17
2022-11-14T07:12:55.611Z,23.34
2022-11-14T07:14:15.987Z,24.05
2022-11-14T07:15:36.376Z,21.20
2022-11-14T07:16:58.048Z,20.68
2022-11-14T07:18:18.359Z,20.52
2022-11-14T07:19:38.769Z,18.87
2022-11-14T07:21:01.715Z,20.41
2022-11-14T07:22:21.993Z,18.93
2022-11-14T07:23:42.909Z,20.15
2022-11-14T07:25:03.430Z,20.87
2022-11-14T07:26:23.920Z,20.64
2022-11-14T07:27:43.978Z,21.55
2022-11-14T07:29:04.687Z,20.12
2022-11-14T07:30:25.187Z,20.80
2022-11-14T07:31:45.275Z,21.03
2022-11-14T07:33:05.694Z,20.90
2022-11-14T07:34:26.126Z,20.61
2022-11-14T07:35:46.405Z,21.55
2022-11-14T07:37:06.448Z,21.50
2022-11-14T07:38:27.195Z,21.12
2022-11-14T07:39:47.529Z,21.72
2022-11-14T07:41:14.267Z,21.50
2022-11-14T07:42:34.537Z,21.78
2022-11-14T07:43:55.133Z,22.41
2022-11-14T07:45:16.208Z,22.46
2022-11-14T07:46:36.599Z,20.31
2022-11-14T07:47:58.849Z,21.26
2022-11-14T07:49:19.466Z,21.73
2022-11-14T07:50:40.060Z,22.83
2022-11-14T07:52:00.358Z,22.87
2022-11-14T07:53:20.663Z,23.75
2022-11-14T07:54:40.841Z,23.37
2022-11-14T07:56:09.825Z,22.84
2022-11-14T07:57:30.025Z,25.45
2022-11-14T07:58:50.392Z,24.20
2022-11-14T08:00:11.607Z,27.81
2022-11-14T08:01:31.895Z,24.16
2022-11-14T08:02:52.303Z,25.08
2022-11-14T08:04:12.662Z,23.59
2022-11-14T08:05:33.642Z,24.46
2022-11-14T08:06:53.938Z,21.76
2022-11-14T08:08:14.440Z,24.34
2022-11-14T08:09:35.278Z,20.75
2022-11-14T08:10:59.943Z,22.89
2022-11-14T08:12:21.247Z,22.33
2022-11-14T08:13:41.683Z,22.51
2022-11-14T08:15:02.334Z,22.17
2022-11-14T08:16:22.896Z,24.84
2022-11-14T08:17:43.153Z,26.98
2022-11-14T08:19:03.457Z,27.65
2022-11-14T08:20:23.546Z,25.92
2022-11-14T08:21:44.801Z,24.60
2022-11-14T08:23:07.217Z,23.92
2022-11-14T08:24:27.354Z,24.64
2022-11-14T08:25:47.704Z,24.08
2022-11-14T08:27:07.675Z,22.71
2022-11-14T08:28:28.476Z,21.37
2022-11-14T08:29:51.108Z,21.87
2022-11-14T08:31:13.313Z,21.73
2022-11-14T08:32:33.883Z,20.10
2022-11-14T08:33:54.119Z,19.40
2022-11-14T08:35:14.277Z,19.89
2022-11-14T08:36:34.617Z,21.26
2022-11-14T08:37:54.942Z,21.06
2022-11-14T08:39:15.456Z,19.61
2022-11-14T08:40:35.599Z,20.58
2022-11-14T08:41:55.736Z,20.33
2022-11-14T08:43:16.192Z,21.97
2022-11-14T08:44:36.489Z,22.78
2022-11-14T08:46:02.209Z,21.45
2022-11-14T08:47:22.590Z,22.88
2022-11-14T08:48:43.081Z,21.10
2022-11-14T08:50:03.488Z,21.53
2022-11-14T08:51:23.664Z,23.24
2022-11-14T08:52:48.966Z,23.87
2022-11-14T08:54:09.343Z,23.52
2022-11-14T08:55:29.747Z,24.58
2022-11-14T08:56:50.163Z,23.34
2022-11-14T08:58:10.557Z,24.79
2022-11-14T08:59:31.813Z,23.10
2022-11-14T09:00:52.743Z,22.73
2022-11-14T09:02:13.824Z,22.23
2022-11-14T09:03:34.718Z,22.46
2022-11-14T09:04:55.294Z,25.43
2022-11-14T09:06:15.399Z,23.71
2022-11-14T09:07:35.882Z,27.47
2022-11-14T09:08:56.166Z,32.08
2022-11-14T09:10:16.675Z,25.04
2022-11-14T09:11:37.068Z,24.31
2022-11-14T09:13:01.902Z,23.76
2022-11-14T09:14:22.139Z,27.70
2022-11-14T09:15:42.865Z,29.57
2022-11-14T09:17:05.987Z,24.87
2022-11-14T09:18:26.705Z,24.45
2022-11-14T09:19:46.884Z,24.70
2022-11-14T09:21:08.668Z,26.00
2022-11-14T09:22:29.132Z,25.02
2022-11-14T09:23:49.683Z,24.41
2022-11-14T09:25:10.132Z,25.61
2022-11-14T09:26:30.439Z,24.85
2022-11-14T09:27:50.833Z,25.74
2022-11-14T09:29:10.921Z,25.93
2022-11-14T09:30:31.499Z,25.79
2022-11-14T09:31:53.346Z,24.83
2022-11-14T09:33:13.769Z,26.69
2022-11-14T09:34:34.127Z,29.11
2022-11-14T09:36:03.281Z,26.80
2022-11-14T09:37:24.197Z,26.35
2022-11-14T09:38:45.555Z,26.57
2022-11-14T09:40:06.890Z,26.19
2022-11-14T09:41:39.941Z,26.36
2022-11-14T09:43:12.183Z,27.28
2022-11-14T09:44:48.250Z,25.62
2022-11-14T09:46:22.267Z,26.72
2022-11-14T09:47:50.756Z,25.33
2022-11-14T09:49:25.493Z,26.05
2022-11-14T09:51:05.184Z,25.46
2022-11-14T09:52:47.636Z,25.02
2022-11-14T09:54:21.057Z,24.48
2022-11-14T09:55:41.169Z,25.01
2022-11-14T09:57:01.624Z,26.23
2022-11-14T09:58:23.298Z,27.05
2022-11-14T09:59:43.994Z,25.93
2022-11-14T10:01:28.570Z,26.31
2022-11-14T10:03:42.771Z,29.80
2022-11-14T10:05:25.256Z,30.04
2022-11-14T10:07:16.011Z,26.60
2022-11-14T10:08:54.447Z,25.19
2022-11-14T10:10:26.685Z,24.18
2022-11-14T10:12:05.583Z,25.66
2022-11-14T10:13:59.603Z,29.52
2022-11-14T10:15:34.034Z,29.21
2022-11-14T10:17:09.249Z,27.46
2022-11-14T10:19:03.646Z,34.16
2022-11-14T10:20:29.658Z,35.58
2022-11-14T10:22:11.192Z,35.46
2022-11-14T10:23:58.145Z,30.76
2022-11-14T10:25:55.193Z,27.39
2022-11-14T10:27:33.507Z,27.05
2022-11-14T10:29:29.668Z,29.47
2022-11-14T10:30:53.260Z,27.84
2022-11-14T10:32:35.302Z,28.68
2022-11-14T10:34:18.383Z,31.91
2022-11-14T10:35:53.296Z,28.32
2022-11-14T10:37:46.574Z,30.55
2022-11-14T10:39:18.316Z,27.47
2022-11-14T10:40:46.704Z,30.02
2022-11-14T10:42:20.230Z,28.45
2022-11-14T10:43:47.068Z,30.10
2022-11-14T10:45:10.365Z,35.27
2022-11-14T10:46:39.679Z,32.19
2022-11-14T10:48:16.237Z,29.99
2022-11-14T10:49:38.600Z,29.20
2022-11-14T10:51:11.942Z,27.70
2022-11-14T10:52:41.628Z,28.57
2022-11-14T10:54:23.960Z,30.08
2022-11-14T10:56:03.578Z,29.29
2022-11-14T10:57:25.327Z,29.89
2022-11-14T10:58:48.780Z,33.73
2022-11-14T11:00:15.736Z,31.35
2022-11-14T11:01:36.224Z,32.90
2022-11-14T11:02:57.545Z,30.86
2022-11-14T11:04:31.038Z,30.33
2022-11-14T11:05:59.905Z,33.82
2022-11-14T11:07:43.127Z,33.21
2022-11-14T11:09:33.548Z,31.84
2022-11-14T11:11:17.951Z,34.82
2022-11-14T11:12:48.406Z,33.19
2022-11-14T11:14:18.285Z,32.41
2022-11-14T11:15:43.149Z,35.65
2022-11-14T11:17:12.494Z,32.65
2022-11-14T11:18:37.066Z,33.79
2022-11-14T11:20:36.946Z,33.88
2022-11-14T11:21:57.513Z,30.10
2022-11-14T11:23:24.200Z,36.02
2022-11-14T11:24:44.723Z,31.73
2022-11-14T11:26:15.832Z,32.03
2022-11-14T11:27:36.265Z,34.31
2022-11-14T11:29:11.905Z,31.84
2022-11-14T11:30:32.649Z,33.59
2022-11-14T11:31:59.811Z,33.34
2022-11-14T11:33:20.136Z,36.84
2022-11-14T11:34:40.909Z,33.52
2022-11-14T11:36:07.056Z,31.60
2022-11-14T11:37:33.033Z,33.17
2022-11-14T11:38:53.501Z,33.84
2022-11-14T11:40:22.648Z,34.10
2022-11-14T11:42:08.661Z,32.73
2022-11-14T11:43:45.068Z,33.86
2022-11-14T11:45:18.113Z,33.38
2022-11-14T11:46:53.803Z,35.21
2022-11-14T11:48:20.166Z,35.16
2022-11-14T11:49:54.215Z,36.30
2022-11-14T11:51:26.885Z,33.42
2022-11-14T11:53:12.711Z,34.82
2022-11-14T11:54:56.933Z,40.18
2022-11-14T11:56:26.393Z,35.43
2022-11-14T11:57:57.884Z,33.58
2022-11-14T11:59:36.888Z,32.00
2022-11-14T12:00:56.996Z,35.61
2022-11-14T12:02:26.924Z,33.11
2022-11-14T12:03:51.357Z,33.50
2022-11-14T12:05:36.546Z,34.82
2022-11-14T12:07:11.902Z,37.19
2022-11-14T12:08:47.875Z,35.56
2022-11-14T12:10:18.847Z,34.82
2022-11-14T12:11:45.314Z,34.94
2022-11-14T12:13:42.211Z,35.12
2022-11-14T12:15:24.438Z,32.80
2022-11-14T12:17:21.509Z,32.98
2022-11-14T12:18:53.702Z,36.10
2022-11-14T12:20:36.160Z,36.60
2022-11-14T12:22:11.421Z,34.54
2022-11-14T12:23:52.544Z,33.33
2022-11-14T12:25:39.743Z,35.79
2022-11-14T12:27:24.625Z,35.89
2022-11-14T12:29:03.441Z,39.10
2022-11-14T12:30:26.909Z,40.01
2022-11-14T12:31:51.926Z,39.44
2022-11-14T12:33:44.818Z,74.00
2022-11-14T12:35:16.845Z,163.82
2022-11-14T12:36:43.064Z,96.49
2022-11-14T12:38:13.272Z,44.12
2022-11-14T12:39:33.846Z,40.23
2022-11-14T12:40:58.467Z,39.29
2022-11-14T12:42:21.725Z,39.86
2022-11-14T12:43:43.352Z,37.58
2022-11-14T12:45:04.232Z,36.13
2022-11-14T12:46:24.626Z,36.92
2022-11-14T12:48:23.301Z,32.69
2022-11-14T12:49:52.853Z,34.57
2022-11-14T12:51:24.761Z,34.19
2022-11-14T12:52:54.192Z,34.81
2022-11-14T12:54:49.262Z,35.37
2022-11-14T12:56:52.621Z,34.99
2022-11-14T12:58:32.397Z,34.41
2022-11-14T13:00:04.727Z,32.30
2022-11-14T13:01:46.750Z,33.23
2022-11-14T13:03:41.119Z,35.85
2022-11-14T13:05:21.357Z,32.30
2022-11-14T13:07:00.240Z,32.28
2022-11-14T13:08:45.541Z,32.21
2022-11-14T13:10:29.385Z,32.50
2022-11-14T13:12:08.611Z,33.32
2022-11-14T13:13:47.867Z,31.81
2022-11-14T13:15:51.700Z,31.25
2022-11-14T13:17:36.544Z,31.59
2022-11-14T13:19:37.495Z,31.51
2022-11-14T13:21:23.906Z,34.23
2022-11-14T13:22:46.655Z,32.34
2022-11-14T13:24:08.207Z,31.63
2022-11-14T13:25:28.807Z,33.39
2022-11-14T13:26:52.389Z,39.23
2022-11-14T13:28:37.664Z,38.39
2022-11-14T13:30:01.926Z,35.53
2022-11-14T13:31:45.269Z,35.14
2022-11-14T13:33:06.320Z,31.62
2022-11-14T13:34:33.316Z,31.74
2022-11-14T13:36:02.141Z,30.78
2022-11-14T13:37:58.661Z,29.47
2022-11-14T13:39:21.555Z,31.94
2022-11-14T13:40:44.965Z,32.32
2022-11-14T13:42:33.889Z,29.57
2022-11-14T13:44:07.504Z,30.83
2022-11-14T13:45:42.856Z,32.60
2022-11-14T13:47:39.043Z,31.71
2022-11-14T13:49:29.372Z,31.75
2022-11-14T13:51:06.270Z,33.22
2022-11-14T13:52:45.592Z,31.21
2022-11-14T13:54:17.527Z,29.81
2022-11-14T13:55:57.830Z,29.11
2022-11-14T13:57:46.956Z,32.24
2022-11-14T13:59:35.014Z,30.73
2022-11-14T14:01:16.373Z,32.17
2022-11-14T14:02:48.866Z,32.78
2022-11-14T14:04:27.342Z,31.86
2022-11-14T14:06:15.474Z,30.91
2022-11-14T14:08:00.774Z,32.11
2022-11-14T14:09:32.641Z,30.50
2022-11-14T14:11:26.080Z,31.96
2022-11-14T14:13:08.096Z,28.81
2022-11-14T14:14:54.724Z,30.69
2022-11-14T14:16:33.559Z,30.87
2022-11-14T14:18:23.835Z,33.26
2022-11-14T14:19:57.159Z,31.82
2022-11-14T14:21:29.352Z,32.86
2022-11-14T14:22:59.034Z,33.69
2022-11-14T14:25:03.860Z,33.85
2022-11-14T14:26:56.443Z,34.67
2022-11-14T14:29:04.897Z,33.12
2022-11-14T14:30:26.554Z,33.09
2022-11-14T14:31:47.080Z,32.79
2022-11-14T14:33:07.610Z,32.56
2022-11-14T14:34:30.998Z,32.70
2022-11-14T14:35:53.817Z,35.07
2022-11-14T14:37:23.092Z,72.56
2022-11-14T14:38:44.220Z,61.73
2022-11-14T14:40:08.876Z,50.22
2022-11-14T14:41:32.536Z,56.44
2022-11-14T14:42:54.968Z,38.33
2022-11-14T14:44:32.175Z,34.53
2022-11-14T14:45:54.456Z,33.73
2022-11-14T14:47:15.773Z,32.13
2022-11-14T14:48:42.484Z,39.35
2022-11-14T14:50:13.125Z,47.01
2022-11-14T14:51:38.009Z,43.69
2022-11-14T14:53:00.995Z,37.80
2022-11-14T14:54:28.880Z,43.69
2022-11-14T14:55:53.305Z,38.09
2022-11-14T14:57:19.671Z,42.18
2022-11-14T14:58:42.771Z,47.31
2022-11-14T15:00:16.852Z,44.13
2022-11-14T15:01:37.135Z,52.09
2022-11-14T15:02:57.973Z,54.66
2022-11-14T15:04:20.983Z,43.71
2022-11-14T15:05:41.641Z,37.40
2022-11-14T15:07:04.355Z,38.65
2022-11-14T15:08:27.811Z,44.76
2022-11-14T15:09:57.215Z,45.91
2022-11-14T15:11:17.945Z,44.44
2022-11-14T15:12:42.136Z,41.24
2022-11-14T15:14:04.433Z,47.19
2022-11-14T15:15:27.010Z,84.69
2022-11-14T15:16:50.981Z,53.34
2022-11-14T15:18:39.583Z,57.15
2022-11-14T15:20:00.064Z,38.04
2022-11-14T15:21:20.342Z,34.81
2022-11-14T15:22:40.640Z,38.52
2022-11-14T15:24:13.137Z,37.01
2022-11-14T15:25:34.104Z,34.81
2022-11-14T15:26:54.762Z,33.75
2022-11-14T15:28:21.277Z,35.95
2022-11-14T15:29:51.827Z,36.31
2022-11-14T15:31:22.512Z,39.16
2022-11-14T15:32:48.969Z,37.60
2022-11-14T15:34:31.662Z,42.01
2022-11-14T15:36:13.600Z,43.48
2022-11-14T15:37:33.987Z,40.81
2022-11-14T15:39:05.984Z,38.57
2022-11-14T15:40:26.465Z,39.33
2022-11-14T15:41:46.835Z,38.56
2022-11-14T15:43:35.543Z,38.79
2022-11-14T15:44:56.714Z,43.41
2022-11-14T15:46:35.699Z,39.32
2022-11-14T15:48:11.497Z,40.84
2022-11-14T15:49:31.865Z,39.20
2022-11-14T15:50:52.504Z,37.46
2022-11-14T15:52:24.973Z,39.94
2022-11-14T15:53:50.314Z,37.05
2022-11-14T15:55:19.523Z,40.19
2022-11-14T15:56:39.571Z,38.66
2022-11-14T15:58:26.670Z,40.31
2022-11-14T15:59:40.609Z,40.30
2022-11-14T16:01:01.115Z,41.29
2022-11-14T16:02:29.495Z,39.43
2022-11-14T16:03:51.642Z,38.77
2022-11-14T16:05:16.829Z,41.97
2022-11-14T16:06:37.260Z,38.63
2022-11-14T16:07:57.998Z,37.29
2022-11-14T16:09:21.495Z,39.31
2022-11-14T16:10:42.058Z,43.26
2022-11-14T16:12:02.472Z,41.78
2022-11-14T16:13:22.740Z,40.21
2022-11-14T16:14:43.213Z,42.77
2022-11-14T16:16:03.773Z,43.31
2022-11-14T16:17:24.152Z,38.39
2022-11-14T16:18:44.669Z,35.41
2022-11-14T16:20:06.967Z,36.01
2022-11-14T16:21:27.443Z,41.15
2022-11-14T16:22:49.872Z,40.39
2022-11-14T16:24:19.763Z,40.42
2022-11-14T16:25:40.209Z,40.06
2022-11-14T16:27:00.414Z,40.82
2022-11-14T16:28:20.688Z,39.64
2022-11-14T16:29:41.220Z,39.49
2022-11-14T16:31:01.581Z,40.12
2022-11-14T16:32:23.503Z,37.85
2022-11-14T16:33:43.877Z,39.35
2022-11-14T16:35:04.634Z,36.86
2022-11-14T16:36:25.540Z,38.93
2022-11-14T16:37:47.392Z,34.20
2022-11-14T16:39:11.332Z,37.82
2022-11-14T16:40:31.427Z,35.00
2022-11-14T16:41:51.844Z,40.25
2022-11-14T16:43:14.978Z,36.94
2022-11-14T16:44:41.794Z,35.18
2022-11-14T16:46:07.689Z,35.27
2022-11-14T16:47:28.437Z,33.35
2022-11-14T16:48:48.647Z,34.15
2022-11-14T16:50:09.919Z,34.59
2022-11-14T16:53:10.276Z,35.59
2022-11-14T16:54:31.093Z,36.24
2022-11-14T16:55:51.553Z,36.66
2022-11-14T16:57:12.241Z,38.73
2022-11-14T16:58:32.716Z,41.26
2022-11-14T16:59:53.218Z,41.39
2022-11-14T17:01:20.971Z,38.80
2022-11-14T17:02:41.763Z,37.11
2022-11-14T17:04:02.207Z,34.43
2022-11-14T17:05:22.671Z,36.63
2022-11-14T17:06:43.253Z,36.11
2022-11-14T17:08:04.173Z,33.42
2022-11-14T17:09:24.588Z,35.56
2022-11-14T17:10:46.738Z,35.51
2022-11-14T17:12:07.114Z,35.78
2022-11-14T17:13:29.409Z,40.58
2022-11-14T17:14:49.809Z,40.48
2022-11-14T17:16:10.403Z,51.39
2022-11-14T17:17:30.999Z,55.46
2022-11-14T17:18:53.906Z,50.99
2022-11-14T17:20:14.455Z,41.27
2022-11-14T17:21:35.165Z,39.66
2022-11-14T17:22:56.085Z,41.37
2022-11-14T17:24:16.757Z,41.12
2022-11-14T17:25:36.830Z,40.49
2022-11-14T17:26:57.154Z,39.67
2022-11-14T17:28:17.636Z,42.41
2022-11-14T17:29:38.052Z,43.40
2022-11-14T17:30:58.582Z,40.50
2022-11-14T17:32:19.104Z,38.82
2022-11-14T17:33:39.375Z,40.16
2022-11-14T17:34:59.649Z,41.09
2022-11-14T17:36:21.953Z,41.28
2022-11-14T17:37:43.350Z,43.01
2022-11-14T17:39:03.831Z,43.04
2022-11-14T17:40:24.094Z,43.31
2022-11-14T17:41:44.471Z,41.86
2022-11-14T17:43:04.876Z,42.24
2022-11-14T17:44:25.225Z,44.62
2022-11-14T17:45:55.076Z,49.97
2022-11-14T17:47:15.614Z,47.75
2022-11-14T17:48:36.135Z,49.01
2022-11-14T17:49:56.819Z,45.59
2022-11-14T17:51:17.389Z,48.00
2022-11-14T17:52:37.930Z,46.02
2022-11-14T17:53:58.588Z,45.89
2022-11-14T17:55:18.991Z,45.77
2022-11-14T17:56:44.418Z,45.32
2022-11-14T17:58:08.275Z,45.85
2022-11-14T17:59:28.643Z,43.26
2022-11-14T18:00:50.353Z,44.41
2022-11-14T18:02:14.625Z,41.99
2022-11-14T18:03:35.732Z,46.39
2022-11-14T18:04:55.854Z,45.96
2022-11-14T18:06:20.909Z,47.36
2022-11-14T18:07:41.419Z,47.34
2022-11-14T18:09:05.097Z,49.49
2022-11-14T18:10:25.316Z,49.83
2022-11-14T18:11:45.652Z,49.05
2022-11-14T18:13:06.113Z,48.65
2022-11-14T18:14:26.780Z,48.44
2022-11-14T18:15:47.311Z,50.77
2022-11-14T18:17:14.495Z,47.64
2022-11-14T18:18:36.873Z,48.73
2022-11-14T18:20:00.244Z,46.91
2022-11-14T18:21:23.348Z,48.57